Pagrindinis puslapis
METAR-TAF:

METAR-TAF

Oro uostai :

Maradis, Nigeris

platuma: 13-28N, ilguma: 007-05E, Aukštis: 372 m

Dabartinis oras

Ataskaita buvo paskelbta 11 valandos ir 0 minutes, ne 18:00 UTC
Vėjas 6 kt iš Rytų
Temperatūra 25°C
Drėgmė 14%
Slėgis 1012 hPa
Matomumas: 1400 m
dulkės

METAR: DRRM 271800Z 10006KT 1400 DU NSC 25/M04 Q1012

Laikas: 06:00 (05:00 UTC)


TAF: trūkstamas

Orai ataskaitas ir orų prognozės (METAR, TAF).

turimą stotys yra geltonos ir raudonos taškus žemėlapyje.

Perkelti pele per norėdami pamatyti stoties vardą.

Tada spustelėkite, norėdami matyti oro stebėjimo ir prognozės.

Norėdami pakeisti žemėlapį: spustelėkite ant žalios mygtukų su juodo kryžiaus žemyn,; žalią mygtuką su brūkšneliu, jei norite nutolinti; arba žalių rodyklių gretimoms žemėlapius.


METAR-TAF: